San Jose Del Cabo, Mexico

6:09 AM MDT on September 01, 2015 (GMT -0600)
El Zacatal | | Change Station
CLOSE
Current Station
Personal Weather Station
Location: San Jose del Cabo, BAJA CALIFORNIA SUR
Elevation: 128 ft
Nearby Weather Stations

Elev 128 ft 23.10 °N, 109.71 °W | Updated 11 minutes ago

Mostly Cloudy
Mostly Cloudy
77.3 °F
Feels Like 79 °F
N
1.0
Wind Variable Wind from NW
Gusts 4.0 mph

Today
High -- | Low -- °F
--% Chance of Precip.
Yesterday
High -- | Low -- °F
Precip. -- in
7:00 AM 7:36 PM
Waning Gibbous, 89% visible
Pressure 29.89 in
Visibility 8.0 miles
Clouds Mostly Cloudy 25000 ft
Heat Index 79 °F
Dew Point 71 °F
Humidity 82%
Rainfall 0.00 in
Snow Depth Not available.
UV 0 out of 12
Pollen Not available.
Air Quality Not available.
Flu Activity Not available.
METAR MMSL 011150Z 00000KT 8SM BKN250 26/21 A2989 RMK 8/009 RTS
Pressure 29.89 in
Visibility 8.0 miles
Clouds Mostly Cloudy 25000 ft
Heat Index 79 °F
Dew Point 71 °F
Humidity 82%
Rainfall 0.00 in
Snow Depth Not available.
UV 0 out of 12
Pollen Not available.
Air Quality Not available.
Flu Activity Not available.
METAR MMSL 011150Z 00000KT 8SM BKN250 26/21 A2989 RMK 8/009 RTS

10-Day Weather Forecast

×

Almanac

Astronomy

Sep. 01, 2015 Rise Set
Actual Time
Civil Twilight
Nautical Twilight
Astronomical Twilight
Moon
Length of Visible Light
Length of Day
Tomorrow will be .
, % of the Moon is Illuminated

Today's Extremes

Country Highs Country Lows

Community

WunderPhotos

Upload Photos

1,851,508 photos uploaded!

WunderBlogs® & News

Nearby

Air Quality

  Air Quality AQ Index Pollutant
Not available.

Snow Depth

Station Depth Elevation

Earthquake Activity

City Distance Mag. Time & Date
Minimum magnitude displayed is 2.5.

Coastal Water Temperatures

Place Temperature

Stations

Nearby Weather Stations

Station Location Temp. Windchill Dew Point Humidity Wind Precip. Elev Updated Type